Time;durP1;ratioP1;P1;durP2;ratioP2;P2;SDS_P1;SDS_P2;PMS_P1;PMS_P2;Temp;Humidity;BMP_temperature;BMP_pressure;BME280_temperature;BME280_humidity;BME280_pressure;Samples;Min_cycle;Max_cycle;Signal;HPM_P1;HPM_P2
2022/04/29 00:00:46;;;;;;;1.75;0.68;;;10.80;99.90;;;;;;4933653;29;20031;-69
2022/04/29 00:03:14;;;;;;;0.13;0.13;;;10.80;99.90;;;;;;4934820;29;20040;-69
2022/04/29 00:05:42;;;;;;;0.47;0.43;;;10.90;99.90;;;;;;4917680;29;20055;-68
2022/04/29 00:08:09;;;;;;;0.55;0.43;;;11.00;99.90;;;;;;4934966;29;20087;-69
2022/04/29 00:10:37;;;;;;;0.00;0.00;;;11.00;99.90;;;;;;4933596;29;20047;-69
2022/04/29 00:13:05;;;;;;;0.43;0.43;;;11.10;99.90;;;;;;4933479;29;20031;-69
2022/04/29 00:15:31;;;;;;;0.30;0.30;;;11.10;99.90;;;;;;4933542;29;20040;-69
2022/04/29 00:17:57;;;;;;;0.20;0.20;;;11.10;99.90;;;;;;4934616;29;20697;-69
2022/04/29 00:20:23;;;;;;;0.10;0.10;;;11.10;99.90;;;;;;4933315;29;20130;-69
2022/04/29 00:22:50;;;;;;;0.00;0.00;;;11.10;99.90;;;;;;4934231;29;20039;-69
2022/04/29 00:25:16;;;;;;;0.00;0.00;;;11.10;99.90;;;;;;4934123;29;20043;-68
2022/04/29 00:27:42;;;;;;;0.00;0.00;;;11.20;99.90;;;;;;4933278;29;20027;-69
2022/04/29 00:30:12;;;;;;;0.47;0.47;;;11.10;99.90;;;;;;4933507;29;20027;-68
2022/04/29 00:32:39;;;;;;;0.75;0.75;;;11.10;99.90;;;;;;4934373;29;20059;-70
2022/04/29 00:35:08;;;;;;;0.38;0.38;;;11.00;99.90;;;;;;4933277;29;20079;-68
2022/04/29 00:37:52;;;;;;;0.00;0.00;;;11.00;99.90;;;;;;4932938;29;20031;-69
2022/04/29 00:40:24;;;;;;;0.25;0.25;;;10.90;99.90;;;;;;4933158;29;20706;-69
2022/04/29 00:42:50;;;;;;;0.00;0.00;;;10.90;99.90;;;;;;4933019;29;20043;-69
2022/04/29 00:45:18;;;;;;;0.20;0.20;;;10.90;99.90;;;;;;4934132;29;20031;-69
2022/04/29 00:47:46;;;;;;;0.32;0.32;;;10.80;99.90;;;;;;4916304;29;20028;-68
2022/04/29 00:50:14;;;;;;;1.52;1.08;;;10.80;99.90;;;;;;4932660;29;20059;-68
2022/04/29 00:52:48;;;;;;;0.45;0.43;;;10.80;99.90;;;;;;4932788;29;20452;-70
2022/04/29 00:55:15;;;;;;;1.65;1.40;;;10.70;99.90;;;;;;4932745;29;20031;-70
2022/04/29 00:58:01;;;;;;;0.35;0.32;;;10.70;99.90;;;;;;4932838;29;20046;-70
2022/04/29 01:00:27;;;;;;;1.50;1.38;;;10.70;99.90;;;;;;4932858;29;20042;-68
2022/04/29 01:02:54;;;;;;;0.08;0.08;;;10.70;99.90;;;;;;4933564;29;20031;-67
2022/04/29 01:05:24;;;;;;;0.17;0.17;;;10.80;99.90;;;;;;4932533;29;20078;-68
2022/04/29 01:07:50;;;;;;;0.60;0.60;;;10.80;99.90;;;;;;4925693;29;20038;-68
2022/04/29 01:10:20;;;;;;;0.00;0.00;;;10.80;99.90;;;;;;4952660;29;20031;-69
2022/04/29 01:12:53;;;;;;;0.28;0.28;;;10.80;99.90;;;;;;4951158;29;20395;-68
2022/04/29 01:15:19;;;;;;;0.60;0.52;;;10.80;99.90;;;;;;4945608;29;20047;-68
2022/04/29 01:17:47;;;;;;;0.20;0.20;;;10.70;99.90;;;;;;4916423;29;20076;-69
2022/04/29 01:20:16;;;;;;;0.10;0.10;;;10.70;99.90;;;;;;4932399;29;20027;-69
2022/04/29 01:22:43;;;;;;;0.20;0.20;;;10.70;99.90;;;;;;4932233;29;20032;-68
2022/04/29 01:25:11;;;;;;;0.15;0.15;;;10.70;99.90;;;;;;4949094;29;20508;-69
2022/04/29 01:27:38;;;;;;;0.65;0.65;;;10.70;99.90;;;;;;4951203;29;20054;-68
2022/04/29 01:30:12;;;;;;;2.65;1.65;;;10.70;99.90;;;;;;4952392;29;20055;-68
2022/04/29 01:32:39;;;;;;;0.30;0.30;;;10.70;99.90;;;;;;4951295;29;20035;-68
2022/04/29 01:35:08;;;;;;;0.20;0.20;;;10.60;99.90;;;;;;4950819;29;20390;-68
2022/04/29 01:37:34;;;;;;;0.30;0.30;;;10.60;99.90;;;;;;4997631;23;20054;-69
2022/04/29 01:40:00;;;;;;;0.10;0.10;;;10.50;99.90;;;;;;5017691;28;20036;-69
2022/04/29 01:42:26;;;;;;;0.22;0.22;;;10.60;99.90;;;;;;4999526;28;20090;-69
2022/04/29 01:44:53;;;;;;;0.00;0.00;;;10.60;99.90;;;;;;5001612;28;20038;-69
2022/04/29 01:47:19;;;;;;;0.10;0.10;;;10.50;99.90;;;;;;5000196;28;20022;-69
2022/04/29 01:49:45;;;;;;;0.10;0.10;;;10.50;99.90;;;;;;5002693;28;20103;-69
2022/04/29 01:52:11;;;;;;;0.08;0.08;;;10.40;99.90;;;;;;5010585;28;20139;-69
2022/04/29 01:54:37;;;;;;;1.95;1.33;;;10.40;99.90;;;;;;4992471;28;20030;-69
2022/04/29 01:57:05;;;;;;;0.08;0.08;;;10.40;99.90;;;;;;5010208;28;20413;-70
2022/04/29 01:59:32;;;;;;;0.08;0.08;;;10.40;99.90;;;;;;5013619;28;20040;-69
2022/04/29 02:01:59;;;;;;;0.00;0.00;;;10.40;99.90;;;;;;5014787;28;20120;-69
2022/04/29 02:04:25;;;;;;;1.25;1.15;;;10.40;99.90;;;;;;5014230;28;20470;-70
2022/04/29 02:06:52;;;;;;;0.75;0.75;;;10.30;99.90;;;;;;5013524;28;20025;-70
2022/04/29 02:09:18;;;;;;;0.50;0.50;;;10.00;99.90;;;;;;5014533;28;20034;-70
2022/04/29 02:12:03;;;;;;;0.08;0.08;;;9.90;99.90;;;;;;5013202;28;20030;-70
2022/04/29 02:14:39;;;;;;;1.02;1.02;;;10.00;99.90;;;;;;4994818;28;20034;-70
2022/04/29 02:17:06;;;;;;;2.15;0.70;;;10.00;99.90;;;;;;5011840;28;20028;-70
2022/04/29 02:19:34;;;;;;;0.70;0.70;;;10.10;99.90;;;;;;5004746;28;20029;-70
2022/04/29 02:22:02;;;;;;;0.20;0.20;;;10.10;99.90;;;;;;5010919;28;20034;-70
2022/04/29 02:24:28;;;;;;;1.38;1.27;;;10.30;99.90;;;;;;4987598;28;20035;-70
2022/04/29 02:26:55;;;;;;;0.00;0.00;;;10.20;99.90;;;;;;4993220;28;20549;-70
2022/04/29 02:29:22;;;;;;;0.30;0.30;;;10.10;99.90;;;;;;5003048;28;20033;-71
2022/04/29 02:31:49;;;;;;;0.35;0.35;;;10.10;99.90;;;;;;5011449;28;20037;-70
2022/04/29 02:34:15;;;;;;;0.65;0.65;;;10.00;99.90;;;;;;5012457;28;20030;-70
2022/04/29 02:36:41;;;;;;;0.45;0.40;;;10.10;99.90;;;;;;5012419;28;20056;-70
2022/04/29 02:39:08;;;;;;;0.10;0.10;;;10.00;99.90;;;;;;5013936;28;20030;-70
2022/04/29 02:41:34;;;;;;;0.20;0.20;;;9.90;99.90;;;;;;5012984;28;20033;-70
2022/04/29 02:43:59;;;;;;;0.38;0.38;;;10.00;99.90;;;;;;5012543;28;20026;-70
2022/04/29 02:46:25;;;;;;;4.32;1.30;;;10.10;99.90;;;;;;5013925;28;20037;-69
2022/04/29 02:48:51;;;;;;;2.38;1.52;;;10.10;99.90;;;;;;5012102;28;20064;-69
2022/04/29 02:51:16;;;;;;;0.17;0.17;;;10.10;99.90;;;;;;5013503;28;20030;-69
2022/04/29 02:53:43;;;;;;;0.25;0.25;;;10.10;99.90;;;;;;5013496;28;20049;-69
2022/04/29 02:56:09;;;;;;;0.00;0.00;;;10.00;99.90;;;;;;4984817;28;20066;-69
2022/04/29 02:58:35;;;;;;;0.40;0.40;;;10.10;99.90;;;;;;5002602;28;20061;-70
2022/04/29 03:01:02;;;;;;;0.60;0.60;;;10.00;99.90;;;;;;4991505;28;20038;-69
2022/04/29 03:03:28;;;;;;;2.53;1.08;;;10.00;99.90;;;;;;5000710;28;20044;-70
2022/04/29 03:05:54;;;;;;;0.20;0.20;;;10.00;99.90;;;;;;5004098;28;20156;-69
2022/04/29 03:08:19;;;;;;;0.22;0.22;;;10.00;99.90;;;;;;5012175;28;20112;-70
2022/04/29 03:10:46;;;;;;;0.20;0.20;;;9.90;99.90;;;;;;5011513;28;20055;-70
2022/04/29 03:13:15;;;;;;;0.20;0.20;;;9.90;99.90;;;;;;5012704;28;20259;-70
2022/04/29 03:15:41;;;;;;;0.30;0.30;;;9.90;99.90;;;;;;4995940;28;20037;-70
2022/04/29 03:18:21;;;;;;;0.93;0.93;;;9.80;99.90;;;;;;5013072;28;20030;-70
2022/04/29 03:20:53;;;;;;;0.30;0.25;;;9.80;99.90;;;;;;5013367;28;20493;-70
2022/04/29 03:23:19;;;;;;;0.57;0.57;;;9.80;99.90;;;;;;5011684;28;20465;-70
2022/04/29 03:25:45;;;;;;;0.45;0.45;;;9.70;99.90;;;;;;4995688;28;20129;-70
2022/04/29 03:28:11;;;;;;;0.10;0.10;;;9.70;99.90;;;;;;5011937;28;20034;-70
2022/04/29 03:30:37;;;;;;;0.20;0.20;;;9.70;99.90;;;;;;5011773;28;20444;-70
2022/04/29 03:33:06;;;;;;;0.10;0.10;;;9.70;99.90;;;;;;5011618;28;20041;-70
2022/04/29 03:35:37;;;;;;;0.03;0.03;;;9.70;99.90;;;;;;5009620;28;20119;-70
2022/04/29 03:38:03;;;;;;;7.18;1.85;;;9.70;99.90;;;;;;5004297;28;20398;-70
2022/04/29 03:40:28;;;;;;;0.70;0.70;;;9.60;99.90;;;;;;5008503;28;20029;-70
2022/04/29 03:42:56;;;;;;;0.35;0.35;;;9.60;99.90;;;;;;5004796;28;20038;-70
2022/04/29 03:45:25;;;;;;;1.48;1.42;;;9.60;99.90;;;;;;5011687;28;20026;-70
2022/04/29 03:47:51;;;;;;;2.45;2.17;;;9.60;99.90;;;;;;4989078;28;20030;-70
2022/04/29 03:50:17;;;;;;;0.28;0.28;;;9.60;99.90;;;;;;4979205;28;20023;-70
2022/04/29 03:52:56;;;;;;;0.10;0.10;;;9.60;99.90;;;;;;4979978;28;20449;-68
2022/04/29 03:55:29;;;;;;;4.03;1.10;;;9.60;99.90;;;;;;4996438;28;20045;-67
2022/04/29 03:57:56;;;;;;;0.28;0.28;;;9.60;99.90;;;;;;4999090;28;20030;-67
2022/04/29 04:00:25;;;;;;;0.40;0.40;;;9.50;99.90;;;;;;4995058;28;20026;-68
2022/04/29 04:02:51;;;;;;;0.55;0.55;;;9.50;99.90;;;;;;4975712;28;20038;-67
2022/04/29 04:05:18;;;;;;;0.10;0.10;;;9.50;99.90;;;;;;4996159;28;20029;-67
2022/04/29 04:07:45;;;;;;;0.15;0.15;;;9.60;99.90;;;;;;5004752;28;20030;-68
2022/04/29 04:10:12;;;;;;;0.20;0.20;;;9.50;99.90;;;;;;4997777;28;20056;-67
2022/04/29 04:12:47;;;;;;;0.10;0.10;;;9.60;99.90;;;;;;4998141;28;20423;-67
2022/04/29 04:15:15;;;;;;;0.47;0.47;;;9.50;99.90;;;;;;4999387;28;20026;-67
2022/04/29 04:17:41;;;;;;;0.20;0.20;;;9.50;99.90;;;;;;4979260;28;20034;-66
2022/04/29 04:20:09;;;;;;;0.45;0.45;;;9.40;99.90;;;;;;4990968;28;20034;-67
2022/04/29 04:22:35;;;;;;;0.40;0.40;;;9.40;99.90;;;;;;4990112;28;20168;-67
2022/04/29 04:25:08;;;;;;;0.20;0.20;;;9.30;99.90;;;;;;4974142;28;20034;-67
2022/04/29 04:27:34;;;;;;;0.80;0.73;;;9.30;99.90;;;;;;4991983;28;20490;-67
2022/04/29 04:30:01;;;;;;;0.68;0.60;;;9.30;99.90;;;;;;4992046;28;20061;-67
2022/04/29 04:32:27;;;;;;;0.10;0.10;;;9.30;99.90;;;;;;4992270;28;20116;-67
2022/04/29 04:34:55;;;;;;;0.32;0.32;;;9.30;99.90;;;;;;4991471;28;20029;-67
2022/04/29 04:37:27;;;;;;;0.25;0.25;;;9.30;99.90;;;;;;4990638;28;20053;-67
2022/04/29 04:39:54;;;;;;;0.20;0.20;;;9.30;99.90;;;;;;4990555;28;20036;-67
2022/04/29 04:42:21;;;;;;;0.85;0.85;;;9.30;99.90;;;;;;4993446;28;20026;-68
2022/04/29 04:44:49;;;;;;;0.43;0.43;;;9.30;99.90;;;;;;4996465;28;20025;-68
2022/04/29 04:47:15;;;;;;;0.85;0.85;;;9.30;99.90;;;;;;4996283;28;20042;-68
2022/04/29 04:49:41;;;;;;;0.20;0.20;;;9.30;99.90;;;;;;4996890;28;20085;-68
2022/04/29 04:52:08;;;;;;;0.90;0.90;;;9.30;99.90;;;;;;4991642;28;20030;-68
2022/04/29 04:54:35;;;;;;;1.55;1.45;;;9.30;99.90;;;;;;4991083;28;20084;-73
2022/04/29 04:57:01;;;;;;;0.40;0.40;;;9.30;99.90;;;;;;4991908;28;20054;-68
2022/04/29 04:59:27;;;;;;;0.25;0.25;;;9.40;99.90;;;;;;4974223;28;20049;-66
2022/04/29 05:01:53;;;;;;;0.50;0.50;;;9.40;99.90;;;;;;4991633;28;20030;-69
2022/04/29 05:04:20;;;;;;;0.43;0.43;;;9.40;99.90;;;;;;4993882;28;20030;-69
2022/04/29 05:06:46;;;;;;;0.35;0.35;;;9.50;99.90;;;;;;4989964;28;20037;-69
2022/04/29 05:09:12;;;;;;;0.65;0.65;;;9.60;99.90;;;;;;4991415;28;20038;-69
2022/04/29 05:11:38;;;;;;;2.13;0.95;;;9.60;99.90;;;;;;4989965;28;20046;-67
2022/04/29 05:14:04;;;;;;;0.75;0.75;;;9.60;99.90;;;;;;4990890;28;20049;-68
2022/04/29 05:16:30;;;;;;;0.90;0.90;;;9.70;99.90;;;;;;4973625;28;20100;-68
2022/04/29 05:18:56;;;;;;;0.93;0.93;;;9.80;99.90;;;;;;4991140;28;20105;-67
2022/04/29 05:21:21;;;;;;;0.20;0.20;;;9.90;99.90;;;;;;4991037;28;20038;-67
2022/04/29 05:23:47;;;;;;;0.25;0.25;;;9.90;99.90;;;;;;4990803;28;20026;-67
2022/04/29 05:26:13;;;;;;;0.20;0.20;;;10.00;99.90;;;;;;4989530;28;20085;-67
2022/04/29 05:28:39;;;;;;;0.47;0.30;;;10.10;99.90;;;;;;4991128;28;20070;-67
2022/04/29 05:31:05;;;;;;;0.45;0.45;;;10.20;99.90;;;;;;4991238;28;20129;-66
2022/04/29 05:33:32;;;;;;;0.15;0.15;;;10.30;99.90;;;;;;4974726;28;20042;-66
2022/04/29 05:35:59;;;;;;;0.10;0.10;;;10.40;99.90;;;;;;4998250;28;20060;-68
2022/04/29 05:42:14;;;;;;;1.55;1.00;;;10.50;99.90;;;;;;4989466;28;20062;-67
2022/04/29 05:44:00;;;;;;;0.45;0.45;;;10.70;99.90;;;;;;4990293;28;20033;-67
2022/04/29 05:46:26;;;;;;;0.98;0.80;;;10.70;99.90;;;;;;4989926;28;20399;-67
2022/04/29 05:48:52;;;;;;;0.28;0.28;;;10.70;99.90;;;;;;4990899;28;20037;-67
2022/04/29 05:51:18;;;;;;;0.17;0.17;;;10.80;99.90;;;;;;4989968;28;20034;-67
2022/04/29 05:53:43;;;;;;;0.28;0.28;;;10.90;99.90;;;;;;4990354;28;20034;-66
2022/04/29 05:56:09;;;;;;;1.70;1.60;;;10.90;99.90;;;;;;4993502;28;20022;-66
2022/04/29 05:58:35;;;;;;;7.43;1.38;;;11.00;99.90;;;;;;4993342;28;20105;-67
2022/04/29 06:01:02;;;;;;;1.40;1.30;;;11.00;99.90;;;;;;4991844;28;20045;-67
2022/04/29 06:03:28;;;;;;;0.55;0.50;;;11.00;99.90;;;;;;4988165;28;20035;-67
2022/04/29 06:05:54;;;;;;;0.55;0.52;;;11.00;99.90;;;;;;4992809;28;20387;-67
2022/04/29 06:08:20;;;;;;;0.22;0.22;;;11.00;99.90;;;;;;4991655;28;20041;-67
2022/04/29 06:10:45;;;;;;;0.63;0.63;;;11.00;99.90;;;;;;4993540;28;20027;-67
2022/04/29 06:13:12;;;;;;;0.60;0.60;;;11.00;99.90;;;;;;4990414;28;20040;-67
2022/04/29 06:15:39;;;;;;;0.20;0.20;;;11.10;99.90;;;;;;4990670;28;20030;-67
2022/04/29 06:18:05;;;;;;;0.63;0.63;;;11.10;99.90;;;;;;4989658;28;20058;-68
2022/04/29 06:20:30;;;;;;;0.90;0.77;;;11.40;99.90;;;;;;4991890;28;20033;-67
2022/04/29 06:22:56;;;;;;;0.00;0.00;;;11.60;99.90;;;;;;4977486;28;20109;-67
2022/04/29 06:25:24;;;;;;;0.73;0.73;;;11.70;99.90;;;;;;4988404;28;20113;-67
2022/04/29 06:27:53;;;;;;;1.13;1.02;;;11.60;99.90;;;;;;4989839;28;20494;-67
2022/04/29 06:30:19;;;;;;;0.05;0.05;;;11.60;99.90;;;;;;4988936;28;20038;-67
2022/04/29 06:32:44;;;;;;;0.10;0.10;;;11.40;99.90;;;;;;4990023;28;20036;-67
2022/04/29 06:35:11;;;;;;;0.32;0.32;;;11.40;99.90;;;;;;4989782;28;20038;-67
2022/04/29 06:37:36;;;;;;;0.73;0.40;;;11.30;99.90;;;;;;4991900;28;20038;-69
2022/04/29 06:40:04;;;;;;;0.20;0.20;;;11.40;99.90;;;;;;4992591;28;20033;-68
2022/04/29 06:42:30;;;;;;;0.25;0.25;;;11.40;99.90;;;;;;4990093;28;20026;-69
2022/04/29 06:44:56;;;;;;;3.03;1.55;;;11.30;99.90;;;;;;4990697;28;20421;-68
2022/04/29 06:47:21;;;;;;;1.42;0.90;;;11.30;99.90;;;;;;5000056;28;20037;-70
2022/04/29 06:49:47;;;;;;;1.25;1.13;;;11.20;99.90;;;;;;4994394;28;20402;-67
2022/04/29 06:52:13;;;;;;;2.80;2.22;;;11.20;99.90;;;;;;5006748;28;20105;-68
2022/04/29 06:54:39;;;;;;;0.70;0.70;;;11.50;99.90;;;;;;4993641;28;20057;-68
2022/04/29 06:57:06;;;;;;;2.72;1.85;;;11.60;99.90;;;;;;4993923;28;20533;-69
2022/04/29 06:59:31;;;;;;;11.13;1.83;;;11.70;99.90;;;;;;4994130;28;20062;-69
2022/04/29 07:01:58;;;;;;;0.20;0.20;;;11.60;99.90;;;;;;4992890;28;20058;-68
2022/04/29 07:04:28;;;;;;;0.25;0.22;;;11.90;99.90;;;;;;4993553;28;20030;-68
2022/04/29 07:06:56;;;;;;;1.52;1.38;;;12.10;99.90;;;;;;4992504;28;20609;-68
2022/04/29 07:09:23;;;;;;;0.20;0.20;;;12.30;99.90;;;;;;4993307;28;20042;-68
2022/04/29 07:11:51;;;;;;;19.10;1.67;;;12.60;99.90;;;;;;4993784;28;20023;-68
2022/04/29 07:14:17;;;;;;;0.13;0.13;;;12.60;99.90;;;;;;4975655;28;20499;-69
2022/04/29 07:16:44;;;;;;;0.20;0.20;;;12.70;99.90;;;;;;4993547;28;20033;-68
2022/04/29 07:19:10;;;;;;;0.32;0.32;;;12.70;99.90;;;;;;4993529;28;20018;-68
2022/04/29 07:21:35;;;;;;;0.95;0.73;;;12.80;99.90;;;;;;4992238;28;20027;-69
2022/04/29 07:24:01;;;;;;;0.17;0.17;;;12.90;99.90;;;;;;4993426;28;20125;-68
2022/04/29 07:26:27;;;;;;;0.35;0.35;;;12.90;99.90;;;;;;4993675;28;20390;-68
2022/04/29 07:28:53;;;;;;;0.10;0.10;;;12.80;99.90;;;;;;4992268;28;20165;-69
2022/04/29 07:31:19;;;;;;;0.10;0.10;;;13.00;99.90;;;;;;4993443;28;20034;-68
2022/04/29 07:33:44;;;;;;;0.52;0.52;;;13.10;99.90;;;;;;4991680;28;20406;-68
2022/04/29 07:41:46;;;;;;;0.00;0.00;;;13.80;99.90;;;;;;4993422;28;20033;-68
2022/04/29 07:44:14;;;;;;;0.35;0.35;;;13.70;99.90;;;;;;4992921;28;20026;-68
2022/04/29 07:46:45;;;;;;;2.40;1.65;;;14.00;99.90;;;;;;4993104;28;20033;-68
2022/04/29 07:49:12;;;;;;;0.55;0.55;;;14.30;99.90;;;;;;4992708;28;20030;-68
2022/04/29 07:51:39;;;;;;;0.20;0.20;;;14.60;99.90;;;;;;5007801;28;20033;-68
2022/04/29 07:54:06;;;;;;;0.47;0.38;;;14.80;99.90;;;;;;4992413;28;20397;-68
2022/04/29 07:56:32;;;;;;;1.10;1.00;;;14.90;99.90;;;;;;4992521;28;20109;-68
2022/04/29 07:58:58;;;;;;;0.13;0.13;;;15.20;99.90;;;;;;4992757;28;20026;-68
2022/04/29 08:01:27;;;;;;;0.70;0.70;;;15.30;99.90;;;;;;4992547;28;20165;-68
2022/04/29 08:03:54;;;;;;;0.20;0.20;;;15.50;99.90;;;;;;4992398;28;20022;-68
2022/04/29 08:06:21;;;;;;;0.10;0.10;;;15.70;99.90;;;;;;4992940;28;20598;-68
2022/04/29 08:08:47;;;;;;;0.57;0.47;;;15.50;99.90;;;;;;4993044;28;20092;-68
2022/04/29 08:11:15;;;;;;;0.25;0.25;;;15.70;99.60;;;;;;4992756;28;20129;-68
2022/04/29 08:13:44;;;;;;;0.00;0.00;;;15.80;99.50;;;;;;4991058;28;20398;-68
2022/04/29 08:16:13;;;;;;;2.95;0.57;;;15.50;99.90;;;;;;4992065;28;20421;-68
2022/04/29 08:18:40;;;;;;;0.75;0.73;;;15.40;99.90;;;;;;4992461;28;20031;-68
2022/04/29 08:21:06;;;;;;;0.73;0.47;;;15.70;99.90;;;;;;4992560;28;20046;-68
2022/04/29 08:23:33;;;;;;;0.40;0.40;;;15.30;99.90;;;;;;4991991;28;20038;-69
2022/04/29 08:25:58;;;;;;;0.05;0.03;;;15.50;99.90;;;;;;4991190;28;20101;-67
2022/04/29 08:28:26;;;;;;;0.63;0.63;;;15.30;99.90;;;;;;4992398;28;20502;-67
2022/04/29 08:30:52;;;;;;;2.05;1.00;;;15.50;99.90;;;;;;4992324;28;20065;-68
2022/04/29 08:33:18;;;;;;;0.25;0.20;;;15.60;99.90;;;;;;4992204;28;20045;-67
2022/04/29 08:35:44;;;;;;;1.55;0.25;;;15.50;99.90;;;;;;4991194;28;20109;-67
2022/04/29 08:38:11;;;;;;;4.80;1.42;;;15.70;99.90;;;;;;4990470;28;20137;-67
2022/04/29 08:40:42;;;;;;;0.68;0.68;;;15.90;99.90;;;;;;4992169;28;20114;-67
2022/04/29 08:43:12;;;;;;;0.38;0.38;;;16.00;99.90;;;;;;4991620;28;20026;-67
2022/04/29 08:45:38;;;;;;;0.35;0.35;;;16.10;99.90;;;;;;4991958;28;20030;-67
2022/04/29 08:48:05;;;;;;;0.20;0.20;;;16.40;99.60;;;;;;4991551;28;20033;-67
2022/04/29 08:50:31;;;;;;;0.90;0.80;;;16.10;99.00;;;;;;4991003;28;20054;-68
2022/04/29 08:52:57;;;;;;;0.80;0.80;;;16.10;99.20;;;;;;4990468;28;20053;-68
2022/04/29 09:01:01;;;;;;;0.75;0.57;;;16.00;99.20;;;;;;4990437;28;20470;-68
2022/04/29 09:03:27;;;;;;;1.65;0.75;;;16.50;99.40;;;;;;4991313;28;20112;-67
2022/04/29 09:05:53;;;;;;;0.63;0.57;;;16.90;98.90;;;;;;4974267;28;20513;-67
2022/04/29 09:08:22;;;;;;;0.35;0.35;;;17.10;98.50;;;;;;4989579;28;20032;-68
2022/04/29 09:10:59;;;;;;;0.32;0.32;;;17.30;99.80;;;;;;4973956;28;20606;-67
2022/04/29 09:13:30;;;;;;;0.15;0.15;;;17.80;95.70;;;;;;4990105;28;20410;-67
2022/04/29 09:16:04;;;;;;;1.55;0.70;;;17.50;95.00;;;;;;4991410;28;20036;-67
2022/04/29 09:18:54;;;;;;;1.00;0.52;;;17.70;95.30;;;;;;4990041;28;20494;-68
2022/04/29 09:21:30;;;;;;;0.70;0.70;;;18.20;94.50;;;;;;4991414;28;20041;-67
2022/04/29 09:24:06;;;;;;;0.70;0.70;;;17.90;93.60;;;;;;4989750;28;20041;-67
2022/04/29 09:26:42;;;;;;;0.52;0.35;;;18.00;94.60;;;;;;4990978;28;20576;-67
2022/04/29 09:29:21;;;;;;;0.20;0.20;;;18.30;94.50;;;;;;4990697;28;20034;-67
2022/04/29 09:31:56;;;;;;;0.10;0.08;;;17.90;94.60;;;;;;4990985;28;20081;-68
2022/04/29 09:34:23;;;;;;;0.20;0.20;;;18.40;94.10;;;;;;4973212;28;20102;-68
2022/04/29 09:36:50;;;;;;;0.20;0.20;;;17.80;94.10;;;;;;4973910;28;20486;-68
2022/04/29 09:39:30;;;;;;;0.20;0.20;;;17.90;94.50;;;;;;4973920;28;20030;-68
2022/04/29 09:42:11;;;;;;;0.25;0.22;;;18.50;93.70;;;;;;4978325;28;20030;-68
2022/04/29 09:44:37;;;;;;;0.77;0.77;;;19.00;92.70;;;;;;4991078;28;20030;-68
2022/04/29 09:47:19;;;;;;;0.20;0.20;;;18.80;92.40;;;;;;4989681;28;20496;-69
2022/04/29 09:49:59;;;;;;;0.22;0.22;;;18.80;92.10;;;;;;4991007;28;20029;-69
2022/04/29 09:52:30;;;;;;;1.92;0.43;;;18.70;93.10;;;;;;4990895;28;20117;-68
2022/04/29 09:55:14;;;;;;;0.10;0.10;;;19.10;92.40;;;;;;4989172;28;20055;-68
2022/04/29 09:57:59;;;;;;;0.52;0.52;;;19.20;91.30;;;;;;4990924;28;20030;-68
2022/04/29 10:00:25;;;;;;;0.20;0.20;;;18.70;92.60;;;;;;4990951;28;20023;-69
2022/04/29 10:02:52;;;;;;;0.20;0.17;;;19.20;92.10;;;;;;4989913;28;20030;-69
2022/04/29 10:05:18;;;;;;;0.25;0.25;;;19.10;91.70;;;;;;4990556;28;20110;-68
2022/04/29 10:07:44;;;;;;;1.42;0.85;;;19.20;92.20;;;;;;4990845;28;20037;-68
2022/04/29 10:10:10;;;;;;;0.10;0.10;;;19.40;91.50;;;;;;4991309;28;20541;-68
2022/04/29 10:12:37;;;;;;;0.30;0.20;;;19.10;91.10;;;;;;4989415;28;20034;-68
2022/04/29 10:15:06;;;;;;;0.30;0.30;;;19.70;90.80;;;;;;4990332;28;20048;-69
2022/04/29 10:23:08;;;;;;;1.23;1.05;;;19.60;90.70;;;;;;4994260;28;20030;-69
2022/04/29 10:25:38;;;;;;;3.30;2.75;;;19.90;90.40;;;;;;4994866;28;20034;-68
2022/04/29 10:28:05;;;;;;;0.20;0.20;;;20.50;90.00;;;;;;4994396;28;20022;-68
2022/04/29 10:30:35;;;;;;;0.88;0.80;;;20.60;87.70;;;;;;4993501;28;20054;-69
2022/04/29 10:33:03;;;;;;;0.00;0.00;;;20.10;89.00;;;;;;4994660;28;20034;-68
2022/04/29 10:35:45;;;;;;;0.80;0.55;;;20.70;87.20;;;;;;4994188;28;20137;-68
2022/04/29 10:38:27;;;;;;;0.13;0.13;;;20.90;85.90;;;;;;4994339;28;20117;-68
2022/04/29 10:41:25;;;;;;;1.10;0.82;;;20.90;84.40;;;;;;4994123;28;20539;-68
2022/04/29 10:43:50;;;;;;;0.52;0.43;;;21.00;84.70;;;;;;4976413;28;20030;-69
2022/04/29 10:46:36;;;;;;;0.38;0.38;;;21.10;83.80;;;;;;4994426;28;20027;-68
2022/04/29 10:49:29;;;;;;;0.40;0.40;;;20.60;82.60;;;;;;4993151;28;20037;-69
2022/04/29 10:52:01;;;;;;;1.30;1.20;;;20.80;81.10;;;;;;4992732;28;20035;-68
2022/04/29 10:54:45;;;;;;;0.40;0.40;;;20.50;82.90;;;;;;4974436;28;20027;-68
2022/04/29 10:57:13;;;;;;;0.50;0.50;;;20.60;82.90;;;;;;4974651;28;20033;-68
2022/04/29 10:59:57;;;;;;;1.23;0.90;;;20.80;81.80;;;;;;4973189;28;20525;-68
2022/04/29 11:02:29;;;;;;;0.63;0.43;;;21.30;79.70;;;;;;4989391;28;20113;-69
2022/04/29 11:05:01;;;;;;;0.10;0.10;;;20.30;79.30;;;;;;4974047;28;20031;-68
2022/04/29 11:07:48;;;;;;;1.17;0.90;;;20.90;75.40;;;;;;4974179;28;20065;-68
2022/04/29 11:10:18;;;;;;;0.52;0.32;;;21.40;75.40;;;;;;4989166;28;20704;-68
2022/04/29 11:13:05;;;;;;;0.10;0.10;;;22.00;76.90;;;;;;4974221;28;20434;-68
2022/04/29 11:15:44;;;;;;;0.20;0.20;;;21.90;77.00;;;;;;4974172;28;20066;-69
2022/04/29 11:18:23;;;;;;;0.77;0.52;;;21.80;78.10;;;;;;4989086;28;20046;-68
2022/04/29 11:20:57;;;;;;;0.43;0.40;;;21.70;78.30;;;;;;4988179;28;20018;-68
2022/04/29 11:26:18;;;;;;;1.30;0.55;;;22.00;75.40;;;;;;4993614;28;20471;-67
2022/04/29 11:28:50;;;;;;;0.20;0.20;;;22.20;75.70;;;;;;4993035;28;20546;-68
2022/04/29 11:31:16;;;;;;;0.40;0.40;;;21.80;73.10;;;;;;4991552;28;20031;-68
2022/04/29 11:33:41;;;;;;;0.15;0.15;;;21.90;72.90;;;;;;4993271;28;20481;-68
2022/04/29 11:36:12;;;;;;;1.02;0.90;;;22.10;71.90;;;;;;4993056;28;20037;-68
2022/04/29 11:38:47;;;;;;;0.13;0.13;;;22.50;71.00;;;;;;4976026;28;20029;-67
2022/04/29 11:41:24;;;;;;;0.22;0.22;;;22.40;71.20;;;;;;4992085;28;20402;-68
2022/04/29 11:43:51;;;;;;;0.13;0.13;;;22.40;71.30;;;;;;4992498;28;20057;-67
2022/04/29 11:46:18;;;;;;;0.73;0.47;;;22.10;71.30;;;;;;4993015;28;20113;-67
2022/04/29 11:49:10;;;;;;;0.08;0.08;;;21.00;70.80;;;;;;4992918;28;20109;-67
2022/04/29 11:51:36;;;;;;;0.50;0.47;;;21.00;72.40;;;;;;4991654;28;20042;-67
2022/04/29 11:54:04;;;;;;;8.93;3.60;;;21.10;72.50;;;;;;4992718;28;20038;-67
2022/04/29 11:56:40;;;;;;;0.20;0.20;;;21.30;74.60;;;;;;4992906;28;20439;-67
2022/04/29 11:59:10;;;;;;;0.47;0.47;;;21.30;72.00;;;;;;4991531;28;20030;-67
2022/04/29 12:01:37;;;;;;;0.00;0.00;;;21.80;71.10;;;;;;4993138;28;20030;-67
2022/04/29 12:04:04;;;;;;;0.05;0.05;;;21.60;71.10;;;;;;4991585;28;20121;-67
2022/04/29 12:06:30;;;;;;;4.57;1.27;;;21.90;70.80;;;;;;4991729;28;20045;-68
2022/04/29 12:08:56;;;;;;;0.63;0.60;;;21.30;71.40;;;;;;4992568;28;20374;-67
2022/04/29 12:11:34;;;;;;;0.10;0.10;;;21.70;71.30;;;;;;4992392;28;20026;-67
2022/04/29 12:14:26;;;;;;;0.10;0.10;;;21.90;70.10;;;;;;4992292;28;20517;-68
2022/04/29 12:16:52;;;;;;;0.15;0.15;;;20.90;71.00;;;;;;4991243;28;20042;-67
2022/04/29 12:19:23;;;;;;;0.32;0.32;;;20.50;71.20;;;;;;4990947;28;20113;-67
2022/04/29 12:22:00;;;;;;;1.10;0.98;;;21.40;71.60;;;;;;4991525;28;20117;-67
2022/04/29 12:24:29;;;;;;;0.10;0.10;;;21.90;70.00;;;;;;4992540;28;20050;-67
2022/04/29 12:27:30;;;;;;;0.73;0.45;;;22.70;68.40;;;;;;4992458;28;20050;-67
2022/04/29 12:35:30;;;;;;;0.38;0.38;;;23.20;65.90;;;;;;4992034;28;20049;-67
2022/04/29 12:37:56;;;;;;;1.02;0.55;;;22.50;66.00;;;;;;4974592;28;20125;-68
2022/04/29 12:40:31;;;;;;;0.50;0.50;;;22.20;66.10;;;;;;4991942;28;20393;-67
2022/04/29 12:43:14;;;;;;;0.15;0.15;;;22.10;67.50;;;;;;4991456;28;20030;-67
2022/04/29 12:45:40;;;;;;;0.40;0.40;;;22.50;66.90;;;;;;4974806;28;20528;-67
2022/04/29 12:48:11;;;;;;;0.00;0.00;;;23.20;66.60;;;;;;4992117;28;20046;-67
2022/04/29 12:50:45;;;;;;;0.20;0.20;;;23.10;65.90;;;;;;4992083;28;20048;-67
2022/04/29 12:53:16;;;;;;;1.88;0.47;;;23.10;65.40;;;;;;4991181;28;20394;-67
2022/04/29 12:55:42;;;;;;;0.52;0.52;;;23.10;65.10;;;;;;4992083;28;20434;-68
2022/04/29 12:58:19;;;;;;;0.95;0.73;;;22.80;66.30;;;;;;4991588;28;20026;-67
2022/04/29 13:00:55;;;;;;;5.88;0.60;;;23.10;66.70;;;;;;4991888;28;20573;-67
2022/04/29 13:03:30;;;;;;;0.20;0.08;;;22.90;66.70;;;;;;4973744;28;20117;-67
2022/04/29 13:05:58;;;;;;;0.57;0.40;;;22.70;66.70;;;;;;4990403;28;20038;-68
2022/04/29 13:08:24;;;;;;;0.52;0.30;;;23.50;66.50;;;;;;4991484;28;20302;-68
2022/04/29 13:10:53;;;;;;;6.72;0.77;;;23.70;65.60;;;;;;4990452;28;20497;-68
2022/04/29 13:13:23;;;;;;;0.30;0.30;;;23.40;65.50;;;;;;4973650;28;20042;-67
2022/04/29 13:15:49;;;;;;;1.20;0.93;;;23.20;64.50;;;;;;4973968;28;20026;-67
2022/04/29 13:18:17;;;;;;;0.20;0.20;;;23.80;63.10;;;;;;4990915;28;20031;-67
2022/04/29 13:20:44;;;;;;;1.30;0.90;;;23.60;64.80;;;;;;4991091;28;20081;-70
2022/04/29 13:23:11;;;;;;;0.68;0.68;;;24.30;63.50;;;;;;4990900;28;20030;-68
2022/04/29 13:25:38;;;;;;;0.10;0.10;;;24.20;62.70;;;;;;4991212;28;20499;-67